sensor_id;sensor_type;location;lat;lon;timestamp;temperature;humidity
15178;DHT22;7689;53.612;-2.416;2022-10-16T00:00:36;9.90;99.90
15178;DHT22;7689;53.612;-2.416;2022-10-16T00:03:04;9.90;99.90
15178;DHT22;7689;53.612;-2.416;2022-10-16T00:05:30;9.90;99.90
15178;DHT22;7689;53.612;-2.416;2022-10-16T00:07:56;9.80;99.90
15178;DHT22;7689;53.612;-2.416;2022-10-16T00:10:22;9.80;99.90
15178;DHT22;7689;53.612;-2.416;2022-10-16T00:12:48;9.70;99.90
15178;DHT22;7689;53.612;-2.416;2022-10-16T00:15:13;9.80;99.90
15178;DHT22;7689;53.612;-2.416;2022-10-16T00:17:39;9.70;99.90
15178;DHT22;7689;53.612;-2.416;2022-10-16T00:20:05;9.80;99.90
15178;DHT22;7689;53.612;-2.416;2022-10-16T00:22:31;9.70;99.90
15178;DHT22;7689;53.612;-2.416;2022-10-16T00:24:57;9.70;99.90
15178;DHT22;7689;53.612;-2.416;2022-10-16T00:27:23;9.70;99.90
15178;DHT22;7689;53.612;-2.416;2022-10-16T00:29:52;9.70;99.90
15178;DHT22;7689;53.612;-2.416;2022-10-16T00:32:19;9.70;99.90
15178;DHT22;7689;53.612;-2.416;2022-10-16T00:34:45;9.70;99.90
15178;DHT22;7689;53.612;-2.416;2022-10-16T00:37:11;9.70;99.90
15178;DHT22;7689;53.612;-2.416;2022-10-16T00:39:37;9.60;99.90
15178;DHT22;7689;53.612;-2.416;2022-10-16T00:42:03;9.70;99.90
15178;DHT22;7689;53.612;-2.416;2022-10-16T00:44:42;9.60;99.90
15178;DHT22;7689;53.612;-2.416;2022-10-16T00:47:29;9.70;99.90
15178;DHT22;7689;53.612;-2.416;2022-10-16T00:52:34;9.70;99.90
15178;DHT22;7689;53.612;-2.416;2022-10-16T00:55:00;9.70;99.90
15178;DHT22;7689;53.612;-2.416;2022-10-16T00:57:27;9.70;99.90
15178;DHT22;7689;53.612;-2.416;2022-10-16T00:59:53;9.70;99.90
15178;DHT22;7689;53.612;-2.416;2022-10-16T01:02:19;9.60;99.90
15178;DHT22;7689;53.612;-2.416;2022-10-16T01:04:48;9.70;99.90
15178;DHT22;7689;53.612;-2.416;2022-10-16T01:07:24;9.70;99.90
15178;DHT22;7689;53.612;-2.416;2022-10-16T01:12:46;9.60;99.90
15178;DHT22;7689;53.612;-2.416;2022-10-16T01:21:09;9.60;99.90
15178;DHT22;7689;53.612;-2.416;2022-10-16T01:31:52;9.60;99.90
15178;DHT22;7689;53.612;-2.416;2022-10-16T01:34:25;9.60;99.90
15178;DHT22;7689;53.612;-2.416;2022-10-16T01:37:05;9.60;99.90
15178;DHT22;7689;53.612;-2.416;2022-10-16T01:39:35;9.60;99.90
15178;DHT22;7689;53.612;-2.416;2022-10-16T01:42:29;9.60;99.90
15178;DHT22;7689;53.612;-2.416;2022-10-16T01:44:54;9.60;99.90
15178;DHT22;7689;53.612;-2.416;2022-10-16T01:47:23;9.60;99.90
15178;DHT22;7689;53.612;-2.416;2022-10-16T01:49:51;9.60;99.90
15178;DHT22;7689;53.612;-2.416;2022-10-16T01:52:20;9.60;99.90
15178;DHT22;7689;53.612;-2.416;2022-10-16T01:54:50;9.60;99.90
15178;DHT22;7689;53.612;-2.416;2022-10-16T01:57:18;9.60;99.90
15178;DHT22;7689;53.612;-2.416;2022-10-16T01:59:48;9.60;99.90
15178;DHT22;7689;53.612;-2.416;2022-10-16T02:02:16;9.60;99.90
15178;DHT22;7689;53.612;-2.416;2022-10-16T02:07:57;9.50;99.90
15178;DHT22;7689;53.612;-2.416;2022-10-16T02:10:24;9.50;99.90
15178;DHT22;7689;53.612;-2.416;2022-10-16T02:13:01;9.50;99.90
15178;DHT22;7689;53.612;-2.416;2022-10-16T02:15:28;9.50;99.90
15178;DHT22;7689;53.612;-2.416;2022-10-16T02:17:54;9.50;99.90
15178;DHT22;7689;53.612;-2.416;2022-10-16T02:20:25;9.50;99.90
15178;DHT22;7689;53.612;-2.416;2022-10-16T02:22:52;9.50;99.90
15178;DHT22;7689;53.612;-2.416;2022-10-16T02:25:26;9.50;99.90
15178;DHT22;7689;53.612;-2.416;2022-10-16T02:32:53;9.40;99.90
15178;DHT22;7689;53.612;-2.416;2022-10-16T02:35:21;9.40;99.90
15178;DHT22;7689;53.612;-2.416;2022-10-16T02:37:48;9.40;99.90
15178;DHT22;7689;53.612;-2.416;2022-10-16T02:40:15;9.40;99.90
15178;DHT22;7689;53.612;-2.416;2022-10-16T02:42:42;9.40;99.90
15178;DHT22;7689;53.612;-2.416;2022-10-16T02:45:09;9.30;99.90
15178;DHT22;7689;53.612;-2.416;2022-10-16T02:47:36;9.20;99.90
15178;DHT22;7689;53.612;-2.416;2022-10-16T02:50:01;9.20;99.90
15178;DHT22;7689;53.612;-2.416;2022-10-16T02:52:27;9.20;99.90
15178;DHT22;7689;53.612;-2.416;2022-10-16T02:54:53;9.10;99.90
15178;DHT22;7689;53.612;-2.416;2022-10-16T02:57:18;9.10;99.90
15178;DHT22;7689;53.612;-2.416;2022-10-16T02:59:45;9.10;99.90
15178;DHT22;7689;53.612;-2.416;2022-10-16T03:02:11;9.10;99.90
15178;DHT22;7689;53.612;-2.416;2022-10-16T03:04:37;9.00;99.90
15178;DHT22;7689;53.612;-2.416;2022-10-16T03:07:03;9.10;99.90
15178;DHT22;7689;53.612;-2.416;2022-10-16T03:09:29;9.10;99.90
15178;DHT22;7689;53.612;-2.416;2022-10-16T03:11:55;9.10;99.90
15178;DHT22;7689;53.612;-2.416;2022-10-16T03:14:21;9.00;99.90
15178;DHT22;7689;53.612;-2.416;2022-10-16T03:16:47;9.00;99.90
15178;DHT22;7689;53.612;-2.416;2022-10-16T03:19:12;9.00;99.90
15178;DHT22;7689;53.612;-2.416;2022-10-16T03:21:38;9.00;99.90
15178;DHT22;7689;53.612;-2.416;2022-10-16T03:24:04;8.90;99.90
15178;DHT22;7689;53.612;-2.416;2022-10-16T03:26:30;9.00;99.90
15178;DHT22;7689;53.612;-2.416;2022-10-16T03:28:55;8.90;99.90
15178;DHT22;7689;53.612;-2.416;2022-10-16T03:31:21;8.90;99.90
15178;DHT22;7689;53.612;-2.416;2022-10-16T03:33:47;9.00;99.90
15178;DHT22;7689;53.612;-2.416;2022-10-16T03:36:12;8.90;99.90
15178;DHT22;7689;53.612;-2.416;2022-10-16T03:38:38;8.90;99.90
15178;DHT22;7689;53.612;-2.416;2022-10-16T03:41:04;8.90;99.90
15178;DHT22;7689;53.612;-2.416;2022-10-16T03:43:29;8.90;99.90
15178;DHT22;7689;53.612;-2.416;2022-10-16T03:45:55;8.80;99.90
15178;DHT22;7689;53.612;-2.416;2022-10-16T03:48:21;8.90;99.90
15178;DHT22;7689;53.612;-2.416;2022-10-16T03:50:46;8.90;99.90
15178;DHT22;7689;53.612;-2.416;2022-10-16T03:53:14;8.90;99.90
15178;DHT22;7689;53.612;-2.416;2022-10-16T03:55:44;8.90;99.90
15178;DHT22;7689;53.612;-2.416;2022-10-16T03:58:10;8.90;99.90
15178;DHT22;7689;53.612;-2.416;2022-10-16T04:00:40;8.90;99.90
15178;DHT22;7689;53.612;-2.416;2022-10-16T04:03:06;8.90;99.90
15178;DHT22;7689;53.612;-2.416;2022-10-16T04:05:32;8.90;99.90
15178;DHT22;7689;53.612;-2.416;2022-10-16T04:07:58;8.90;99.90
15178;DHT22;7689;53.612;-2.416;2022-10-16T04:10:23;9.00;99.90
15178;DHT22;7689;53.612;-2.416;2022-10-16T04:12:49;9.00;99.90
15178;DHT22;7689;53.612;-2.416;2022-10-16T04:15:15;8.90;99.90
15178;DHT22;7689;53.612;-2.416;2022-10-16T04:17:40;8.90;99.90
15178;DHT22;7689;53.612;-2.416;2022-10-16T04:20:06;8.80;99.90
15178;DHT22;7689;53.612;-2.416;2022-10-16T04:22:32;8.80;99.90
15178;DHT22;7689;53.612;-2.416;2022-10-16T04:24:58;8.80;99.90
15178;DHT22;7689;53.612;-2.416;2022-10-16T04:27:23;8.90;99.90
15178;DHT22;7689;53.612;-2.416;2022-10-16T04:29:49;8.90;99.90
15178;DHT22;7689;53.612;-2.416;2022-10-16T04:32:15;8.90;99.90
15178;DHT22;7689;53.612;-2.416;2022-10-16T04:34:40;8.90;99.90
15178;DHT22;7689;53.612;-2.416;2022-10-16T04:37:07;8.90;99.90
15178;DHT22;7689;53.612;-2.416;2022-10-16T04:39:32;8.90;99.90
15178;DHT22;7689;53.612;-2.416;2022-10-16T04:41:58;8.90;99.90
15178;DHT22;7689;53.612;-2.416;2022-10-16T04:44:23;8.90;99.90
15178;DHT22;7689;53.612;-2.416;2022-10-16T04:46:52;8.90;99.90
15178;DHT22;7689;53.612;-2.416;2022-10-16T04:49:17;8.90;99.90
15178;DHT22;7689;53.612;-2.416;2022-10-16T04:51:43;8.90;99.90
15178;DHT22;7689;53.612;-2.416;2022-10-16T04:54:09;8.80;99.90
15178;DHT22;7689;53.612;-2.416;2022-10-16T04:56:35;8.80;99.90
15178;DHT22;7689;53.612;-2.416;2022-10-16T04:59:08;8.70;99.90
15178;DHT22;7689;53.612;-2.416;2022-10-16T05:01:34;8.60;99.90
15178;DHT22;7689;53.612;-2.416;2022-10-16T05:03:59;8.70;99.90
15178;DHT22;7689;53.612;-2.416;2022-10-16T05:06:25;8.70;99.90
15178;DHT22;7689;53.612;-2.416;2022-10-16T05:08:51;8.60;99.90
15178;DHT22;7689;53.612;-2.416;2022-10-16T05:11:16;8.60;99.90
15178;DHT22;7689;53.612;-2.416;2022-10-16T05:13:42;8.50;99.90
15178;DHT22;7689;53.612;-2.416;2022-10-16T05:16:07;8.40;99.90
15178;DHT22;7689;53.612;-2.416;2022-10-16T05:18:33;8.40;99.90
15178;DHT22;7689;53.612;-2.416;2022-10-16T05:20:59;8.30;99.90
15178;DHT22;7689;53.612;-2.416;2022-10-16T05:23:24;8.30;99.90
15178;DHT22;7689;53.612;-2.416;2022-10-16T05:25:55;8.20;99.90
15178;DHT22;7689;53.612;-2.416;2022-10-16T05:28:26;8.20;99.90
15178;DHT22;7689;53.612;-2.416;2022-10-16T05:30:52;8.20;99.90
15178;DHT22;7689;53.612;-2.416;2022-10-16T05:33:22;8.10;99.90
15178;DHT22;7689;53.612;-2.416;2022-10-16T05:35:49;7.00;99.90
15178;DHT22;7689;53.612;-2.416;2022-10-16T05:38:15;8.20;99.90
15178;DHT22;7689;53.612;-2.416;2022-10-16T05:40:41;8.10;99.90
15178;DHT22;7689;53.612;-2.416;2022-10-16T05:43:07;8.10;99.90
15178;DHT22;7689;53.612;-2.416;2022-10-16T05:45:33;8.00;99.90
15178;DHT22;7689;53.612;-2.416;2022-10-16T05:47:59;8.00;99.90
15178;DHT22;7689;53.612;-2.416;2022-10-16T05:50:25;7.90;99.90
15178;DHT22;7689;53.612;-2.416;2022-10-16T05:52:51;7.80;99.90
15178;DHT22;7689;53.612;-2.416;2022-10-16T05:55:16;7.80;99.90
15178;DHT22;7689;53.612;-2.416;2022-10-16T05:57:42;7.80;99.90
15178;DHT22;7689;53.612;-2.416;2022-10-16T06:00:08;7.80;99.90
15178;DHT22;7689;53.612;-2.416;2022-10-16T06:02:34;7.80;99.90
15178;DHT22;7689;53.612;-2.416;2022-10-16T06:05:00;7.90;99.90
15178;DHT22;7689;53.612;-2.416;2022-10-16T06:07:25;7.90;99.90
15178;DHT22;7689;53.612;-2.416;2022-10-16T06:09:52;7.90;99.90
15178;DHT22;7689;53.612;-2.416;2022-10-16T06:12:19;8.10;99.90
15178;DHT22;7689;53.612;-2.416;2022-10-16T06:14:45;8.00;99.90
15178;DHT22;7689;53.612;-2.416;2022-10-16T06:17:13;8.10;99.90
15178;DHT22;7689;53.612;-2.416;2022-10-16T06:19:39;8.00;99.90
15178;DHT22;7689;53.612;-2.416;2022-10-16T06:22:05;8.00;99.90
15178;DHT22;7689;53.612;-2.416;2022-10-16T06:24:31;7.90;99.90
15178;DHT22;7689;53.612;-2.416;2022-10-16T06:26:57;7.80;99.90
15178;DHT22;7689;53.612;-2.416;2022-10-16T06:29:22;7.90;99.90
15178;DHT22;7689;53.612;-2.416;2022-10-16T06:31:48;7.90;99.90
15178;DHT22;7689;53.612;-2.416;2022-10-16T06:34:14;7.90;99.90
15178;DHT22;7689;53.612;-2.416;2022-10-16T06:36:39;7.80;99.90
15178;DHT22;7689;53.612;-2.416;2022-10-16T06:39:06;7.90;99.90
15178;DHT22;7689;53.612;-2.416;2022-10-16T06:41:33;7.90;99.90
15178;DHT22;7689;53.612;-2.416;2022-10-16T06:43:59;7.90;99.90
15178;DHT22;7689;53.612;-2.416;2022-10-16T06:46:25;8.00;99.90
15178;DHT22;7689;53.612;-2.416;2022-10-16T06:48:52;8.00;99.90
15178;DHT22;7689;53.612;-2.416;2022-10-16T06:51:23;8.10;99.90
15178;DHT22;7689;53.612;-2.416;2022-10-16T06:53:52;8.10;99.90
15178;DHT22;7689;53.612;-2.416;2022-10-16T06:58:45;8.50;99.90
15178;DHT22;7689;53.612;-2.416;2022-10-16T07:01:11;8.60;99.90
15178;DHT22;7689;53.612;-2.416;2022-10-16T07:03:39;8.80;99.90
15178;DHT22;7689;53.612;-2.416;2022-10-16T07:06:06;9.10;99.90
15178;DHT22;7689;53.612;-2.416;2022-10-16T07:08:37;9.20;99.90
15178;DHT22;7689;53.612;-2.416;2022-10-16T07:11:08;9.10;99.90
15178;DHT22;7689;53.612;-2.416;2022-10-16T07:13:38;9.00;99.90
15178;DHT22;7689;53.612;-2.416;2022-10-16T07:16:18;8.90;99.90
15178;DHT22;7689;53.612;-2.416;2022-10-16T07:18:44;8.90;99.90
15178;DHT22;7689;53.612;-2.416;2022-10-16T07:21:14;8.90;99.90
15178;DHT22;7689;53.612;-2.416;2022-10-16T07:23:40;8.90;99.90
15178;DHT22;7689;53.612;-2.416;2022-10-16T07:26:07;9.00;99.90
15178;DHT22;7689;53.612;-2.416;2022-10-16T07:28:32;8.80;99.90
15178;DHT22;7689;53.612;-2.416;2022-10-16T07:31:05;8.80;99.90
15178;DHT22;7689;53.612;-2.416;2022-10-16T07:33:32;8.90;99.90
15178;DHT22;7689;53.612;-2.416;2022-10-16T07:35:58;8.90;99.90
15178;DHT22;7689;53.612;-2.416;2022-10-16T07:38:24;8.90;99.90
15178;DHT22;7689;53.612;-2.416;2022-10-16T07:40:59;9.00;99.90
15178;DHT22;7689;53.612;-2.416;2022-10-16T07:43:26;9.00;99.90
15178;DHT22;7689;53.612;-2.416;2022-10-16T07:45:52;9.10;99.90
15178;DHT22;7689;53.612;-2.416;2022-10-16T07:48:18;9.20;99.90
15178;DHT22;7689;53.612;-2.416;2022-10-16T07:50:44;9.20;99.90
15178;DHT22;7689;53.612;-2.416;2022-10-16T07:53:11;9.30;99.90
15178;DHT22;7689;53.612;-2.416;2022-10-16T07:55:37;9.30;99.90
15178;DHT22;7689;53.612;-2.416;2022-10-16T07:58:03;9.30;99.90
15178;DHT22;7689;53.612;-2.416;2022-10-16T08:00:30;9.30;99.90
15178;DHT22;7689;53.612;-2.416;2022-10-16T08:02:57;9.30;99.90
15178;DHT22;7689;53.612;-2.416;2022-10-16T08:05:28;9.50;99.90
15178;DHT22;7689;53.612;-2.416;2022-10-16T08:07:56;9.90;99.90
15178;DHT22;7689;53.612;-2.416;2022-10-16T08:10:23;10.20;99.90
15178;DHT22;7689;53.612;-2.416;2022-10-16T08:12:50;10.30;99.90
15178;DHT22;7689;53.612;-2.416;2022-10-16T08:15:16;10.40;99.90
15178;DHT22;7689;53.612;-2.416;2022-10-16T08:17:42;10.30;99.90
15178;DHT22;7689;53.612;-2.416;2022-10-16T08:20:08;10.30;99.90
15178;DHT22;7689;53.612;-2.416;2022-10-16T08:22:34;10.20;99.90
15178;DHT22;7689;53.612;-2.416;2022-10-16T08:25:00;10.20;99.90
15178;DHT22;7689;53.612;-2.416;2022-10-16T08:27:31;10.20;99.90
15178;DHT22;7689;53.612;-2.416;2022-10-16T08:29:57;10.20;99.90
15178;DHT22;7689;53.612;-2.416;2022-10-16T08:32:22;10.30;99.90
15178;DHT22;7689;53.612;-2.416;2022-10-16T08:34:48;10.20;99.90
15178;DHT22;7689;53.612;-2.416;2022-10-16T08:37:14;10.30;99.90
15178;DHT22;7689;53.612;-2.416;2022-10-16T08:39:40;10.40;99.90
15178;DHT22;7689;53.612;-2.416;2022-10-16T08:50:36;10.50;99.90
15178;DHT22;7689;53.612;-2.416;2022-10-16T08:53:04;10.50;99.90
15178;DHT22;7689;53.612;-2.416;2022-10-16T08:58:01;10.60;99.90
15178;DHT22;7689;53.612;-2.416;2022-10-16T09:00:27;10.70;99.90
15178;DHT22;7689;53.612;-2.416;2022-10-16T09:05:56;10.80;99.90
15178;DHT22;7689;53.612;-2.416;2022-10-16T09:14:32;10.90;99.90
15178;DHT22;7689;53.612;-2.416;2022-10-16T09:22:48;11.20;99.90
15178;DHT22;7689;53.612;-2.416;2022-10-16T09:25:16;11.20;99.90
15178;DHT22;7689;53.612;-2.416;2022-10-16T09:27:44;11.00;99.90
15178;DHT22;7689;53.612;-2.416;2022-10-16T09:32:39;11.10;99.90
15178;DHT22;7689;53.612;-2.416;2022-10-16T09:35:13;11.20;99.90
15178;DHT22;7689;53.612;-2.416;2022-10-16T09:37:41;11.20;99.90
15178;DHT22;7689;53.612;-2.416;2022-10-16T09:40:34;11.30;99.90
15178;DHT22;7689;53.612;-2.416;2022-10-16T09:43:22;11.30;99.90
15178;DHT22;7689;53.612;-2.416;2022-10-16T09:45:57;11.40;99.90
15178;DHT22;7689;53.612;-2.416;2022-10-16T09:48:26;11.30;99.90
15178;DHT22;7689;53.612;-2.416;2022-10-16T09:51:01;11.30;99.90
15178;DHT22;7689;53.612;-2.416;2022-10-16T09:53:42;11.30;99.90
15178;DHT22;7689;53.612;-2.416;2022-10-16T09:56:10;11.30;99.90
15178;DHT22;7689;53.612;-2.416;2022-10-16T09:58:42;10.90;99.90
15178;DHT22;7689;53.612;-2.416;2022-10-16T10:01:14;11.50;99.90
15178;DHT22;7689;53.612;-2.416;2022-10-16T10:03:42;11.70;99.90
15178;DHT22;7689;53.612;-2.416;2022-10-16T10:06:26;11.70;99.90
15178;DHT22;7689;53.612;-2.416;2022-10-16T10:09:19;11.60;99.90
15178;DHT22;7689;53.612;-2.416;2022-10-16T10:14:25;11.70;99.90
15178;DHT22;7689;53.612;-2.416;2022-10-16T10:17:01;11.90;99.90
15178;DHT22;7689;53.612;-2.416;2022-10-16T10:19:28;12.00;99.90
15178;DHT22;7689;53.612;-2.416;2022-10-16T10:21:53;12.10;99.90
15178;DHT22;7689;53.612;-2.416;2022-10-16T10:24:19;12.10;99.90
15178;DHT22;7689;53.612;-2.416;2022-10-16T10:26:56;12.30;99.90
15178;DHT22;7689;53.612;-2.416;2022-10-16T10:32:44;12.30;99.90
15178;DHT22;7689;53.612;-2.416;2022-10-16T10:41:07;12.40;99.90
15178;DHT22;7689;53.612;-2.416;2022-10-16T10:44:11;12.20;99.90
15178;DHT22;7689;53.612;-2.416;2022-10-16T10:46:49;12.20;99.90
15178;DHT22;7689;53.612;-2.416;2022-10-16T10:49:39;12.40;99.90
15178;DHT22;7689;53.612;-2.416;2022-10-16T10:52:36;12.70;99.90
15178;DHT22;7689;53.612;-2.416;2022-10-16T10:55:42;12.70;99.90
15178;DHT22;7689;53.612;-2.416;2022-10-16T10:59:12;12.70;99.90
15178;DHT22;7689;53.612;-2.416;2022-10-16T11:02:10;12.80;99.90
15178;DHT22;7689;53.612;-2.416;2022-10-16T11:06:46;13.20;99.90
15178;DHT22;7689;53.612;-2.416;2022-10-16T11:11:52;13.10;99.90
15178;DHT22;7689;53.612;-2.416;2022-10-16T11:17:07;13.10;99.90
15178;DHT22;7689;53.612;-2.416;2022-10-16T11:22:19;13.30;99.90
15178;DHT22;7689;53.612;-2.416;2022-10-16T11:24:51;13.30;99.90
15178;DHT22;7689;53.612;-2.416;2022-10-16T11:27:38;13.40;99.90
15178;DHT22;7689;53.612;-2.416;2022-10-16T11:30:18;13.40;99.90
15178;DHT22;7689;53.612;-2.416;2022-10-16T11:32:50;13.30;99.90
15178;DHT22;7689;53.612;-2.416;2022-10-16T11:35:27;13.30;99.90
15178;DHT22;7689;53.612;-2.416;2022-10-16T11:37:57;13.40;99.90
15178;DHT22;7689;53.612;-2.416;2022-10-16T11:40:42;13.50;99.90
15178;DHT22;7689;53.612;-2.416;2022-10-16T11:43:42;13.40;99.90
15178;DHT22;7689;53.612;-2.416;2022-10-16T11:46:13;13.50;99.90
15178;DHT22;7689;53.612;-2.416;2022-10-16T11:51:55;13.60;99.90
15178;DHT22;7689;53.612;-2.416;2022-10-16T11:54:32;13.70;99.90
15178;DHT22;7689;53.612;-2.416;2022-10-16T11:57:07;13.60;99.90
15178;DHT22;7689;53.612;-2.416;2022-10-16T12:02:25;13.70;99.90
15178;DHT22;7689;53.612;-2.416;2022-10-16T12:05:07;13.90;99.90
15178;DHT22;7689;53.612;-2.416;2022-10-16T12:07:39;13.80;99.90
15178;DHT22;7689;53.612;-2.416;2022-10-16T12:10:19;13.70;99.90
15178;DHT22;7689;53.612;-2.416;2022-10-16T12:12:45;13.90;99.90
15178;DHT22;7689;53.612;-2.416;2022-10-16T12:15:25;14.20;99.90
15178;DHT22;7689;53.612;-2.416;2022-10-16T12:17:51;14.30;99.90
15178;DHT22;7689;53.612;-2.416;2022-10-16T12:22:56;14.30;99.90
15178;DHT22;7689;53.612;-2.416;2022-10-16T12:25:35;14.30;99.90
15178;DHT22;7689;53.612;-2.416;2022-10-16T12:28:26;13.90;99.90
15178;DHT22;7689;53.612;-2.416;2022-10-16T12:30:57;13.70;99.90
15178;DHT22;7689;53.612;-2.416;2022-10-16T12:33:30;13.90;99.90
15178;DHT22;7689;53.612;-2.416;2022-10-16T12:35:58;14.10;99.90
15178;DHT22;7689;53.612;-2.416;2022-10-16T12:38:38;14.20;99.90
15178;DHT22;7689;53.612;-2.416;2022-10-16T12:41:10;14.20;99.90
15178;DHT22;7689;53.612;-2.416;2022-10-16T12:43:45;14.20;99.90
15178;DHT22;7689;53.612;-2.416;2022-10-16T12:48:38;14.10;99.90
15178;DHT22;7689;53.612;-2.416;2022-10-16T12:51:11;14.10;99.90
15178;DHT22;7689;53.612;-2.416;2022-10-16T12:53:37;14.20;99.90
15178;DHT22;7689;53.612;-2.416;2022-10-16T12:59:38;14.20;99.90
15178;DHT22;7689;53.612;-2.416;2022-10-16T13:05:17;14.10;99.90
15178;DHT22;7689;53.612;-2.416;2022-10-16T13:19:22;14.10;99.90
15178;DHT22;7689;53.612;-2.416;2022-10-16T13:24:27;13.80;99.90
15178;DHT22;7689;53.612;-2.416;2022-10-16T13:27:12;13.80;99.90
15178;DHT22;7689;53.612;-2.416;2022-10-16T13:29:41;13.90;99.90
15178;DHT22;7689;53.612;-2.416;2022-10-16T13:32:09;13.90;99.90
15178;DHT22;7689;53.612;-2.416;2022-10-16T13:34:45;14.00;99.90
15178;DHT22;7689;53.612;-2.416;2022-10-16T13:37:19;14.10;99.90
15178;DHT22;7689;53.612;-2.416;2022-10-16T13:39:45;14.00;99.90
15178;DHT22;7689;53.612;-2.416;2022-10-16T13:42:30;13.90;99.90
15178;DHT22;7689;53.612;-2.416;2022-10-16T13:44:56;13.90;99.90
15178;DHT22;7689;53.612;-2.416;2022-10-16T13:47:24;13.80;99.90
15178;DHT22;7689;53.612;-2.416;2022-10-16T13:52:25;13.80;99.90
15178;DHT22;7689;53.612;-2.416;2022-10-16T13:54:51;13.80;99.90
15178;DHT22;7689;53.612;-2.416;2022-10-16T13:57:17;13.70;99.90
15178;DHT22;7689;53.612;-2.416;2022-10-16T13:59:43;13.80;99.90
15178;DHT22;7689;53.612;-2.416;2022-10-16T14:02:34;13.80;99.90
15178;DHT22;7689;53.612;-2.416;2022-10-16T14:05:02;13.80;99.90
15178;DHT22;7689;53.612;-2.416;2022-10-16T14:07:33;13.80;99.90
15178;DHT22;7689;53.612;-2.416;2022-10-16T14:10:06;13.80;99.90
15178;DHT22;7689;53.612;-2.416;2022-10-16T14:12:33;13.80;99.90
15178;DHT22;7689;53.612;-2.416;2022-10-16T14:15:00;13.80;99.90
15178;DHT22;7689;53.612;-2.416;2022-10-16T14:17:28;14.30;99.90
15178;DHT22;7689;53.612;-2.416;2022-10-16T14:19:57;13.50;99.90
15178;DHT22;7689;53.612;-2.416;2022-10-16T14:24:55;13.40;99.90
15178;DHT22;7689;53.612;-2.416;2022-10-16T14:27:33;13.30;99.90
15178;DHT22;7689;53.612;-2.416;2022-10-16T14:30:21;13.20;99.90
15178;DHT22;7689;53.612;-2.416;2022-10-16T14:32:56;13.00;99.90
15178;DHT22;7689;53.612;-2.416;2022-10-16T14:35:27;13.00;99.90
15178;DHT22;7689;53.612;-2.416;2022-10-16T14:37:54;13.00;99.90
15178;DHT22;7689;53.612;-2.416;2022-10-16T14:40:32;12.90;99.90
15178;DHT22;7689;53.612;-2.416;2022-10-16T14:42:59;13.00;99.90
15178;DHT22;7689;53.612;-2.416;2022-10-16T14:45:28;12.90;99.90
15178;DHT22;7689;53.612;-2.416;2022-10-16T14:48:00;12.80;99.90
15178;DHT22;7689;53.612;-2.416;2022-10-16T14:50:26;12.70;99.90
15178;DHT22;7689;53.612;-2.416;2022-10-16T14:52:53;12.70;99.90
15178;DHT22;7689;53.612;-2.416;2022-10-16T14:55:18;12.70;99.90
15178;DHT22;7689;53.612;-2.416;2022-10-16T14:57:45;12.60;99.90
15178;DHT22;7689;53.612;-2.416;2022-10-16T15:00:22;12.60;99.90
15178;DHT22;7689;53.612;-2.416;2022-10-16T15:02:49;12.60;99.90
15178;DHT22;7689;53.612;-2.416;2022-10-16T15:05:23;12.50;99.90
15178;DHT22;7689;53.612;-2.416;2022-10-16T15:07:50;12.40;99.90
15178;DHT22;7689;53.612;-2.416;2022-10-16T15:10:17;12.40;99.90
15178;DHT22;7689;53.612;-2.416;2022-10-16T15:12:43;12.30;99.90
15178;DHT22;7689;53.612;-2.416;2022-10-16T15:15:33;12.20;99.90
15178;DHT22;7689;53.612;-2.416;2022-10-16T15:18:00;12.30;99.90
15178;DHT22;7689;53.612;-2.416;2022-10-16T15:20:35;12.40;99.90
15178;DHT22;7689;53.612;-2.416;2022-10-16T15:23:22;12.50;99.90
15178;DHT22;7689;53.612;-2.416;2022-10-16T15:25:52;12.70;99.90
15178;DHT22;7689;53.612;-2.416;2022-10-16T15:28:19;12.80;99.90
15178;DHT22;7689;53.612;-2.416;2022-10-16T15:30:46;12.80;99.90
15178;DHT22;7689;53.612;-2.416;2022-10-16T15:33:20;12.90;99.90
15178;DHT22;7689;53.612;-2.416;2022-10-16T15:35:47;12.90;99.90
15178;DHT22;7689;53.612;-2.416;2022-10-16T15:38:14;12.90;99.90
15178;DHT22;7689;53.612;-2.416;2022-10-16T15:40:41;12.90;99.90
15178;DHT22;7689;53.612;-2.416;2022-10-16T15:43:07;12.80;99.90
15178;DHT22;7689;53.612;-2.416;2022-10-16T15:45:33;12.80;99.90
15178;DHT22;7689;53.612;-2.416;2022-10-16T15:47:59;12.70;99.90
15178;DHT22;7689;53.612;-2.416;2022-10-16T15:50:25;12.70;99.90
15178;DHT22;7689;53.612;-2.416;2022-10-16T15:52:51;12.70;99.90
15178;DHT22;7689;53.612;-2.416;2022-10-16T15:55:17;12.60;99.90
15178;DHT22;7689;53.612;-2.416;2022-10-16T15:57:44;12.60;99.90
15178;DHT22;7689;53.612;-2.416;2022-10-16T16:00:13;12.50;99.90
15178;DHT22;7689;53.612;-2.416;2022-10-16T16:02:40;12.50;99.90
15178;DHT22;7689;53.612;-2.416;2022-10-16T16:05:07;12.60;99.90
15178;DHT22;7689;53.612;-2.416;2022-10-16T16:07:37;12.60;99.90
15178;DHT22;7689;53.612;-2.416;2022-10-16T16:10:04;12.50;99.90
15178;DHT22;7689;53.612;-2.416;2022-10-16T16:12:30;12.50;99.90
15178;DHT22;7689;53.612;-2.416;2022-10-16T16:14:56;12.50;99.90
15178;DHT22;7689;53.612;-2.416;2022-10-16T16:17:22;12.50;99.90
15178;DHT22;7689;53.612;-2.416;2022-10-16T16:19:49;12.30;99.90
15178;DHT22;7689;53.612;-2.416;2022-10-16T16:22:14;12.20;99.90
15178;DHT22;7689;53.612;-2.416;2022-10-16T16:24:40;12.10;99.90
15178;DHT22;7689;53.612;-2.416;2022-10-16T16:27:06;12.00;99.90
15178;DHT22;7689;53.612;-2.416;2022-10-16T16:29:32;11.80;99.90
15178;DHT22;7689;53.612;-2.416;2022-10-16T16:31:59;11.80;99.90
15178;DHT22;7689;53.612;-2.416;2022-10-16T16:34:29;11.80;99.90
15178;DHT22;7689;53.612;-2.416;2022-10-16T16:36:55;11.70;99.90
15178;DHT22;7689;53.612;-2.416;2022-10-16T16:39:21;11.70;99.90
15178;DHT22;7689;53.612;-2.416;2022-10-16T16:41:48;11.60;99.90
15178;DHT22;7689;53.612;-2.416;2022-10-16T16:44:15;11.60;99.90
15178;DHT22;7689;53.612;-2.416;2022-10-16T16:46:42;11.60;99.90
15178;DHT22;7689;53.612;-2.416;2022-10-16T16:49:09;11.60;99.90
15178;DHT22;7689;53.612;-2.416;2022-10-16T16:51:36;11.60;99.90
15178;DHT22;7689;53.612;-2.416;2022-10-16T16:54:01;11.60;99.90
15178;DHT22;7689;53.612;-2.416;2022-10-16T16:56:28;11.50;99.90
15178;DHT22;7689;53.612;-2.416;2022-10-16T16:58:55;11.50;99.90
15178;DHT22;7689;53.612;-2.416;2022-10-16T17:01:23;11.50;99.90
15178;DHT22;7689;53.612;-2.416;2022-10-16T17:03:53;11.40;99.90
15178;DHT22;7689;53.612;-2.416;2022-10-16T17:06:21;11.40;99.90
15178;DHT22;7689;53.612;-2.416;2022-10-16T17:08:48;11.30;99.90
15178;DHT22;7689;53.612;-2.416;2022-10-16T17:11:16;11.30;99.90
15178;DHT22;7689;53.612;-2.416;2022-10-16T17:13:42;11.30;99.90
15178;DHT22;7689;53.612;-2.416;2022-10-16T17:16:08;11.30;99.90
15178;DHT22;7689;53.612;-2.416;2022-10-16T17:18:34;11.30;99.90
15178;DHT22;7689;53.612;-2.416;2022-10-16T17:21:07;11.30;99.90
15178;DHT22;7689;53.612;-2.416;2022-10-16T17:23:34;11.20;99.90
15178;DHT22;7689;53.612;-2.416;2022-10-16T17:26:12;11.20;99.90
15178;DHT22;7689;53.612;-2.416;2022-10-16T17:28:39;11.10;99.90
15178;DHT22;7689;53.612;-2.416;2022-10-16T17:33:36;11.20;99.90
15178;DHT22;7689;53.612;-2.416;2022-10-16T17:36:02;11.10;99.90
15178;DHT22;7689;53.612;-2.416;2022-10-16T17:38:28;11.20;99.90
15178;DHT22;7689;53.612;-2.416;2022-10-16T17:40:54;11.20;99.90
15178;DHT22;7689;53.612;-2.416;2022-10-16T17:43:20;11.20;99.90
15178;DHT22;7689;53.612;-2.416;2022-10-16T17:45:46;11.10;99.90
15178;DHT22;7689;53.612;-2.416;2022-10-16T17:48:12;11.20;99.90
15178;DHT22;7689;53.612;-2.416;2022-10-16T17:50:42;11.10;99.90